Aviation Digital Data Service (ADDS)

Output produced by METARs form (1305 UTC 21 May 2018)
found at http://aviationweather.gov/adds/metars/
 
KMLU 211149Z 2112/2212 21005KT P6SM BKN100 
     FM211500 25004KT P6SM SCT025 BKN150 
     FM211800 24005KT P6SM SCT035 BKN150 BKN250 
     FM212100 24006KT P6SM VCTS BKN040CB BKN150 BKN250 
     FM220100 00000KT P6SM FEW150 SCT250